Celebrity Century — 9HJI9 — position and weather

sailwx.info

Track history (hours):
 
Tides and Currents Weather Stations Pressure Air Temp Water Temp Dewpoint Dewpoint Depression Visibility Wind Speed Wind Dir Waves Ship Positions

Celebrity Century

Last reported at 2016-Apr-30 20:33 UTC. Time now 2016-Apr-30 20:41 UTC.
Position N 33°43' E 130°04'.

Length 252 m; draft 7.9 m.

Type: Ship. MMSI: 249054000.

Date/timePositionNaut miles runAvg speedWind from/ knotsBaromVisibWave heightAir tempDewpointWater temp
2016-Apr-30 20:33N 33°43' E 130°04'1212.3
2016-Apr-30 19:33N 33°40' E 129°50'34313.2
2016-Apr-29 17:32N 31°25' E 123°36'1413.7
2016-Apr-29 16:31N 31°20' E 123°20'1313.5
2016-Apr-29 15:33N 31°16' E 123°06'1413.7
2016-Apr-29 14:34N 31°09' E 122°52'1413.7
2016-Apr-29 13:33N 31°05' E 122°37'1312.9
2016-Apr-29 12:33N 31°06' E 122°22'1611.8
2016-Apr-29 11:14N 31°13' E 122°06'1012.4
2016-Apr-29 10:28N 31°16' E 121°55'1010.6
2016-Apr-29 09:33N 31°19' E 121°44'7 7.3
2016-Apr-29 08:33N 31°22' E 121°37'6 6.2
2016-Apr-29 07:33N 31°25' E 121°30'0 0.1
2016-Apr-29 06:33N 31°25' E 121°30'0 0.0
2016-Apr-29 04:03N 31°25' E 121°30'0 0.0
2016-Apr-29 03:27N 31°25' E 121°30'0 0.0
2016-Apr-29 02:27N 31°25' E 121°30'0 0.0
2016-Apr-29 01:33N 31°25' E 121°30'0 0.0
2016-Apr-29 00:33N 31°25' E 121°30'0 0.0
2016-Apr-28 23:33N 31°25' E 121°30'2 1.7
2016-Apr-28 22:33N 31°24' E 121°32'1111.0
2016-Apr-28 21:33N 31°19' E 121°44'1414.3
2016-Apr-28 20:33N 31°15' E 121°60'1414.1
2016-Apr-28 19:33N 31°08' E 122°14'1312.9
2016-Apr-28 18:33N 31°07' E 122°29'  
2016-Apr-24 13:27N 31°20' E 122°56'1516.2
2016-Apr-24 12:33N 31°10' E 122°44'4413.3
2016-Apr-24 09:13N 31°16' E 121°52'913.6
2016-Apr-24 08:32N 31°20' E 121°42'1111.6
2016-Apr-24 07:33N 31°25' E 121°31'0 0.0
2016-Apr-23 23:11N 31°25' E 121°30'0 0.0
2016-Apr-23 22:32N 31°25' E 121°30'5 4.6
2016-Apr-23 21:33N 31°23' E 121°35'1211.6
2016-Apr-23 20:32N 31°18' E 121°48'  
Track history (hours):
 
Tides and Currents Weather Stations Pressure Air Temp Water Temp Dewpoint Dewpoint Depression Visibility Wind Speed Wind Dir Waves Ship Positions

Celebrity Century

Last reported at 2016-Apr-30 20:33 UTC. Time now 2016-Apr-30 20:41 UTC.
Position N 33°43' E 130°04'.

Length 252 m; draft 7.9 m.

Type: Ship. MMSI: 249054000.

Date/timePositionNaut miles runAvg speedWind from/ knotsBaromVisibWave heightAir tempDewpointWater temp
2016-Apr-30 20:33N 33°43' E 130°04'1212.3
2016-Apr-30 19:33N 33°40' E 129°50'34313.2
2016-Apr-29 17:32N 31°25' E 123°36'1413.7
2016-Apr-29 16:31N 31°20' E 123°20'1313.5
2016-Apr-29 15:33N 31°16' E 123°06'1413.7
2016-Apr-29 14:34N 31°09' E 122°52'1413.7
2016-Apr-29 13:33N 31°05' E 122°37'1312.9
2016-Apr-29 12:33N 31°06' E 122°22'1611.8
2016-Apr-29 11:14N 31°13' E 122°06'1012.4
2016-Apr-29 10:28N 31°16' E 121°55'1010.6
2016-Apr-29 09:33N 31°19' E 121°44'7 7.3
2016-Apr-29 08:33N 31°22' E 121°37'6 6.2
2016-Apr-29 07:33N 31°25' E 121°30'0 0.1
2016-Apr-29 06:33N 31°25' E 121°30'0 0.0
2016-Apr-29 04:03N 31°25' E 121°30'0 0.0
2016-Apr-29 03:27N 31°25' E 121°30'0 0.0
2016-Apr-29 02:27N 31°25' E 121°30'0 0.0
2016-Apr-29 01:33N 31°25' E 121°30'0 0.0
2016-Apr-29 00:33N 31°25' E 121°30'0 0.0
2016-Apr-28 23:33N 31°25' E 121°30'2 1.7
2016-Apr-28 22:33N 31°24' E 121°32'1111.0
2016-Apr-28 21:33N 31°19' E 121°44'1414.3
2016-Apr-28 20:33N 31°15' E 121°60'1414.1
2016-Apr-28 19:33N 31°08' E 122°14'1312.9
2016-Apr-28 18:33N 31°07' E 122°29'  
2016-Apr-24 13:27N 31°20' E 122°56'1516.2
2016-Apr-24 12:33N 31°10' E 122°44'4413.3
2016-Apr-24 09:13N 31°16' E 121°52'913.6
2016-Apr-24 08:32N 31°20' E 121°42'1111.6
2016-Apr-24 07:33N 31°25' E 121°31'0 0.0
2016-Apr-23 23:11N 31°25' E 121°30'0 0.0
2016-Apr-23 22:32N 31°25' E 121°30'5 4.6
2016-Apr-23 21:33N 31°23' E 121°35'1211.6
2016-Apr-23 20:32N 31°18' E 121°48'  

Dump ship's entire track history